Terminal Aerodrome Forecast
Issued by NWS Charleston, SC

Home | Current Version | Previous Version | Text Only | Print | Product List | Glossary On
Versions: 1 2 3 4 5 6 7 8 9 10 11 12
000
FTUS42 KCHS 232322
TAFCHS
TAF
KCHS 232322Z 2400/2424 21010KT P6SM FEW025 SCT060 BKN150
     FM240300 22008KT P6SM VCTS SCT025CB BKN050
     FM240800 23008KT P6SM FEW025 SCT050 BKN250
     FM241700 21012G17KT P6SM SCT035 BKN060=

USA.gov is the U.S. government's official web portal to all federal, state and local government web resources and services.